Time;durP1;ratioP1;P1;durP2;ratioP2;P2;SDS_P1;SDS_P2;PMS_P1;PMS_P2;Temp;Humidity;BMP_temperature;BMP_pressure;BME280_temperature;BME280_humidity;BME280_pressure;Samples;Min_cycle;Max_cycle;Signal;HPM_P1;HPM_P2
2022/11/22 00:00:59;;;;;;;3.60;3.03;;;7.90;99.90;;;;;;5013998;28;20195;-68
2022/11/22 00:03:25;;;;;;;5.13;3.77;;;7.60;99.90;;;;;;5009635;28;20211;-67
2022/11/22 00:05:50;;;;;;;5.43;3.20;;;8.00;99.90;;;;;;5011246;28;20187;-69
2022/11/22 00:08:16;;;;;;;5.83;2.80;;;8.00;99.90;;;;;;5019629;28;20183;-68
2022/11/22 00:10:42;;;;;;;4.30;3.10;;;7.70;99.90;;;;;;5019196;28;20178;-68
2022/11/22 00:13:08;;;;;;;3.17;2.80;;;7.60;99.90;;;;;;5018351;28;20215;-68
2022/11/22 00:15:34;;;;;;;3.60;3.13;;;7.70;99.90;;;;;;5019583;28;20929;-68
2022/11/22 00:18:00;;;;;;;4.17;2.57;;;7.90;99.90;;;;;;5016767;28;20203;-68
2022/11/22 00:20:26;;;;;;;5.57;3.23;;;7.70;99.90;;;;;;5011873;28;20427;-68
2022/11/22 00:22:52;;;;;;;7.38;3.05;;;7.90;99.90;;;;;;5020477;28;20917;-68
2022/11/22 00:25:18;;;;;;;4.80;2.80;;;7.80;99.90;;;;;;5016255;28;20241;-68
2022/11/22 00:27:44;;;;;;;3.63;2.83;;;7.90;99.90;;;;;;5011240;28;20939;-69
2022/11/22 00:30:10;;;;;;;4.73;3.10;;;8.00;99.90;;;;;;5013677;28;20182;-67
2022/11/22 00:32:35;;;;;;;5.10;3.23;;;7.80;99.90;;;;;;5012290;28;20441;-67
2022/11/22 00:35:01;;;;;;;4.80;2.60;;;7.80;99.90;;;;;;5035869;28;20481;-68
2022/11/22 00:37:27;;;;;;;4.17;2.80;;;8.00;99.90;;;;;;5014830;28;20496;-69
2022/11/22 00:39:52;;;;;;;4.27;2.43;;;8.20;99.90;;;;;;5012854;28;20175;-68
2022/11/22 00:42:18;;;;;;;3.33;2.77;;;8.10;99.90;;;;;;5013494;28;20467;-67
2022/11/22 00:44:44;;;;;;;3.00;2.60;;;7.90;99.90;;;;;;5011126;28;20188;-68
2022/11/22 00:47:09;;;;;;;4.23;2.23;;;8.20;99.90;;;;;;5010831;28;20413;-68
2022/11/22 00:49:35;;;;;;;2.73;1.97;;;8.00;99.90;;;;;;5014952;28;20225;-67
2022/11/22 00:52:01;;;;;;;2.47;2.27;;;8.10;99.90;;;;;;5008804;28;20179;-68
2022/11/22 00:54:26;;;;;;;2.47;2.20;;;8.30;99.90;;;;;;5019223;28;20264;-68
2022/11/22 00:56:52;;;;;;;4.50;2.60;;;8.10;99.90;;;;;;5016499;28;20175;-68
2022/11/22 00:59:18;;;;;;;2.90;2.70;;;8.30;99.90;;;;;;5031403;28;20245;-68
2022/11/22 01:01:43;;;;;;;2.27;2.07;;;8.10;99.90;;;;;;5012617;28;20260;-67
2022/11/22 01:04:09;;;;;;;4.00;2.23;;;7.70;99.90;;;;;;5031458;28;20198;-68
2022/11/22 01:06:34;;;;;;;3.63;2.30;;;8.30;99.90;;;;;;5013179;28;20182;-69
2022/11/22 01:09:00;;;;;;;3.50;2.20;;;8.50;99.90;;;;;;5019929;28;20170;-68
2022/11/22 01:11:26;;;;;;;6.00;2.30;;;8.20;99.90;;;;;;5017813;28;20174;-68
2022/11/22 01:13:52;;;;;;;3.97;2.33;;;8.30;99.90;;;;;;5011907;28;20192;-68
2022/11/22 01:16:17;;;;;;;5.77;2.50;;;8.30;99.90;;;;;;5008856;28;20260;-67
2022/11/22 01:18:44;;;;;;;3.67;2.00;;;8.20;99.90;;;;;;5013200;28;20512;-67
2022/11/22 01:21:10;;;;;;;4.55;2.00;;;8.10;99.90;;;;;;5014595;28;20560;-67
2022/11/22 01:23:36;;;;;;;3.58;2.45;;;8.10;99.90;;;;;;5019507;28;20245;-67
2022/11/22 01:26:05;;;;;;;2.40;2.20;;;8.50;99.90;;;;;;5037680;28;20178;-68
2022/11/22 01:28:31;;;;;;;3.45;2.15;;;8.30;99.90;;;;;;5005655;28;20214;-67
2022/11/22 01:30:56;;;;;;;3.80;2.43;;;8.60;99.90;;;;;;5020946;28;20190;-68
2022/11/22 01:33:22;;;;;;;2.70;2.30;;;8.40;99.90;;;;;;5010238;28;20614;-68
2022/11/22 01:35:48;;;;;;;3.70;2.70;;;8.20;99.90;;;;;;5018702;28;20266;-68
2022/11/22 01:38:14;;;;;;;5.27;2.70;;;8.20;99.90;;;;;;5032408;28;20435;-68
2022/11/22 01:40:39;;;;;;;3.50;2.70;;;8.30;99.90;;;;;;5013035;28;20268;-67
2022/11/22 01:43:18;;;;;;;4.33;2.83;;;7.90;99.90;;;;;;5008419;28;20495;-67
2022/11/22 01:46:06;;;;;;;2.20;2.00;;;8.20;99.90;;;;;;5016256;28;20183;-67
2022/11/22 01:48:34;;;;;;;4.85;2.67;;;8.30;99.90;;;;;;5019900;28;20261;-68
2022/11/22 01:51:23;;;;;;;2.20;2.00;;;8.50;99.90;;;;;;5013869;28;20183;-67
2022/11/22 01:53:50;;;;;;;3.08;2.30;;;8.30;99.90;;;;;;5017590;28;20277;-68
2022/11/22 01:56:18;;;;;;;3.35;2.38;;;8.30;99.90;;;;;;5012807;28;20621;-67
2022/11/22 01:58:47;;;;;;;4.40;2.47;;;8.20;99.90;;;;;;5019498;28;20186;-68
2022/11/22 02:01:13;;;;;;;3.35;2.58;;;8.30;99.90;;;;;;5010520;28;20179;-68
2022/11/22 02:03:43;;;;;;;2.40;2.20;;;8.60;99.90;;;;;;5021306;28;20205;-68
2022/11/22 02:06:09;;;;;;;2.75;2.13;;;8.40;99.90;;;;;;5022327;28;20188;-67
2022/11/22 02:08:50;;;;;;;4.63;2.55;;;8.40;99.90;;;;;;5044352;28;20183;-68
2022/11/22 02:11:17;;;;;;;2.95;2.65;;;8.30;99.90;;;;;;5028463;28;20189;-67
2022/11/22 02:13:44;;;;;;;2.83;2.47;;;8.40;99.90;;;;;;5005777;28;20203;-67
2022/11/22 02:16:10;;;;;;;2.25;1.98;;;8.20;99.90;;;;;;5016245;28;20699;-68
2022/11/22 02:18:37;;;;;;;3.30;2.45;;;7.80;99.90;;;;;;5022160;28;20675;-67
2022/11/22 02:21:04;;;;;;;3.58;2.83;;;8.20;99.90;;;;;;5031781;28;20733;-67
2022/11/22 02:24:02;;;;;;;3.50;2.60;;;8.30;99.90;;;;;;5022733;28;20709;-67
2022/11/22 02:26:28;;;;;;;4.05;2.10;;;8.40;99.90;;;;;;5029369;28;20210;-67
2022/11/22 02:28:59;;;;;;;4.68;2.42;;;8.30;99.90;;;;;;5015413;28;20194;-68
2022/11/22 02:31:38;;;;;;;3.13;2.50;;;8.30;99.90;;;;;;5009620;28;20206;-67
2022/11/22 02:34:04;;;;;;;2.88;2.65;;;8.20;99.90;;;;;;5012162;28;20204;-67
2022/11/22 02:36:34;;;;;;;3.67;2.50;;;8.20;99.90;;;;;;5015681;28;20214;-67
2022/11/22 02:39:00;;;;;;;2.97;2.65;;;8.80;99.90;;;;;;5012741;28;20179;-68
2022/11/22 02:41:26;;;;;;;6.50;2.63;;;8.50;99.90;;;;;;5014261;28;20194;-68
2022/11/22 02:43:52;;;;;;;3.20;2.53;;;8.10;99.90;;;;;;5023787;28;20228;-68
2022/11/22 02:46:20;;;;;;;2.27;2.07;;;8.60;99.90;;;;;;5015211;28;20675;-68
2022/11/22 02:48:46;;;;;;;4.45;2.50;;;8.80;99.90;;;;;;5035810;28;20187;-68
2022/11/22 02:51:18;;;;;;;3.83;2.85;;;8.40;99.90;;;;;;5030997;28;20701;-68
2022/11/22 02:53:44;;;;;;;2.50;2.30;;;8.50;99.90;;;;;;5022609;28;20195;-68
2022/11/22 02:56:10;;;;;;;4.35;2.42;;;8.50;99.90;;;;;;5034268;28;20211;-68
2022/11/22 02:58:36;;;;;;;2.97;2.53;;;8.30;99.90;;;;;;5016489;28;20175;-68
2022/11/22 03:01:01;;;;;;;3.90;2.20;;;8.20;99.90;;;;;;5018476;28;20266;-68
2022/11/22 03:03:27;;;;;;;2.73;2.53;;;8.30;99.90;;;;;;5015131;28;20757;-68
2022/11/22 03:05:53;;;;;;;2.57;2.33;;;8.20;99.90;;;;;;5016620;28;20720;-67
2022/11/22 03:08:18;;;;;;;2.60;2.40;;;8.20;99.90;;;;;;5023109;28;20254;-68
2022/11/22 03:10:44;;;;;;;8.73;2.87;;;8.40;99.90;;;;;;5020451;28;20187;-68
2022/11/22 03:13:09;;;;;;;2.60;2.40;;;8.10;99.90;;;;;;5023836;28;20634;-68
2022/11/22 03:15:35;;;;;;;2.93;2.20;;;8.10;99.90;;;;;;5016550;28;20624;-68
2022/11/22 03:18:02;;;;;;;3.50;2.50;;;8.00;99.90;;;;;;5021674;28;20179;-68
2022/11/22 03:20:29;;;;;;;2.85;2.60;;;8.20;99.90;;;;;;5038108;28;20175;-68
2022/11/22 03:22:55;;;;;;;3.00;2.35;;;8.20;99.90;;;;;;5013046;28;20289;-69
2022/11/22 03:25:21;;;;;;;2.90;2.55;;;7.90;99.90;;;;;;5023909;28;20229;-69
2022/11/22 03:27:47;;;;;;;2.90;2.70;;;7.80;99.90;;;;;;5020516;28;20186;-69
2022/11/22 03:30:13;;;;;;;2.90;2.70;;;7.70;99.90;;;;;;5015228;28;20270;-69
2022/11/22 03:32:39;;;;;;;2.58;2.38;;;7.80;99.90;;;;;;5012845;28;20203;-69
2022/11/22 03:35:05;;;;;;;2.97;2.67;;;7.80;99.90;;;;;;5034693;28;20222;-70
2022/11/22 03:37:31;;;;;;;4.38;2.60;;;7.80;99.90;;;;;;5018868;28;20214;-70
2022/11/22 03:39:57;;;;;;;4.00;2.60;;;7.90;99.90;;;;;;5023345;28;20236;-70
2022/11/22 03:42:22;;;;;;;3.63;2.97;;;7.70;99.90;;;;;;5036188;28;20244;-69
2022/11/22 03:44:48;;;;;;;2.57;2.37;;;7.70;99.90;;;;;;5017181;28;20191;-69
2022/11/22 03:47:14;;;;;;;3.70;2.93;;;7.60;99.90;;;;;;5024412;28;20186;-70
2022/11/22 03:49:39;;;;;;;4.30;1.93;;;7.60;99.90;;;;;;5018385;28;20437;-70
2022/11/22 03:52:05;;;;;;;3.03;2.80;;;8.00;99.90;;;;;;5037198;28;20218;-69
2022/11/22 03:54:31;;;;;;;2.90;2.33;;;7.90;99.90;;;;;;5014295;28;20218;-69
2022/11/22 03:56:56;;;;;;;2.90;2.60;;;7.70;99.90;;;;;;5018607;28;20210;-69
2022/11/22 03:59:22;;;;;;;2.50;2.13;;;7.50;99.90;;;;;;5014977;28;20632;-70
2022/11/22 04:01:48;;;;;;;2.60;2.40;;;7.50;99.90;;;;;;5010666;28;20245;-69
2022/11/22 04:04:13;;;;;;;2.53;2.33;;;7.60;99.90;;;;;;5007459;28;20202;-69
2022/11/22 04:06:39;;;;;;;2.93;2.63;;;7.40;99.90;;;;;;5033245;28;20455;-69
2022/11/22 04:09:05;;;;;;;3.47;2.50;;;7.30;99.90;;;;;;5035210;28;20280;-69
2022/11/22 04:11:31;;;;;;;3.20;2.90;;;7.40;99.90;;;;;;5021163;28;20217;-70
2022/11/22 04:16:40;;;;;;;3.17;2.50;;;7.40;99.90;;;;;;5016058;28;20191;-69
2022/11/22 04:19:06;;;;;;;3.17;2.30;;;7.50;99.90;;;;;;5010238;28;20616;-69
2022/11/22 04:21:34;;;;;;;3.30;2.60;;;7.30;99.90;;;;;;5012971;28;20542;-70
2022/11/22 04:26:45;;;;;;;4.35;3.38;;;7.30;99.90;;;;;;5016028;28;20198;-70
2022/11/22 04:29:11;;;;;;;3.60;3.17;;;7.50;99.90;;;;;;5021610;28;20174;-70
2022/11/22 04:34:21;;;;;;;2.70;2.05;;;7.20;99.90;;;;;;5012835;28;20214;-70
2022/11/22 04:36:47;;;;;;;5.43;2.60;;;7.10;99.90;;;;;;5020395;28;20633;-70
2022/11/22 04:39:12;;;;;;;3.40;2.20;;;7.10;99.90;;;;;;5017874;28;20175;-69
2022/11/22 04:41:38;;;;;;;2.90;2.33;;;7.00;99.90;;;;;;5012990;28;20277;-69
2022/11/22 04:46:48;;;;;;;4.85;4.32;;;7.20;99.90;;;;;;4997919;28;20202;-69
2022/11/22 04:49:13;;;;;;;2.93;2.53;;;7.10;99.90;;;;;;5010681;28;20187;-69
2022/11/22 04:54:23;;;;;;;3.00;2.67;;;6.90;99.90;;;;;;5022549;28;20611;-70
2022/11/22 04:56:49;;;;;;;2.90;2.27;;;7.00;99.90;;;;;;5013913;28;20183;-70
2022/11/22 04:59:14;;;;;;;2.80;2.60;;;7.10;99.90;;;;;;5019662;28;20324;-70
2022/11/22 05:01:40;;;;;;;2.93;2.20;;;7.10;99.90;;;;;;5016944;28;20178;-70
2022/11/22 05:04:06;;;;;;;4.40;2.60;;;7.10;99.90;;;;;;5021579;28;20190;-70
2022/11/22 05:06:31;;;;;;;2.73;2.53;;;7.10;99.90;;;;;;5010633;28;20182;-70
2022/11/22 05:08:57;;;;;;;4.10;2.20;;;6.80;99.90;;;;;;5021201;28;20174;-70
2022/11/22 05:11:22;;;;;;;3.90;2.63;;;6.60;99.90;;;;;;5019026;28;20191;-71
2022/11/22 05:13:49;;;;;;;4.73;3.30;;;6.60;99.90;;;;;;5012942;28;20200;-70
2022/11/22 05:16:15;;;;;;;6.55;4.03;;;6.70;99.90;;;;;;5011063;28;20218;-70
2022/11/22 05:18:41;;;;;;;3.67;3.10;;;6.70;99.90;;;;;;5011124;28;20788;-70
2022/11/22 05:21:09;;;;;;;4.28;2.15;;;6.60;99.90;;;;;;5033933;28;20241;-70
2022/11/22 05:23:53;;;;;;;3.38;2.40;;;6.70;99.90;;;;;;5023505;28;20221;-70
2022/11/22 05:26:40;;;;;;;3.35;2.83;;;6.70;99.90;;;;;;5001630;28;20269;-70
2022/11/22 05:29:08;;;;;;;2.78;2.22;;;7.00;99.90;;;;;;5005758;28;20182;-70
2022/11/22 05:31:36;;;;;;;2.53;2.13;;;6.80;99.90;;;;;;5015701;28;20183;-71
2022/11/22 05:34:02;;;;;;;3.40;2.15;;;6.90;99.90;;;;;;5005443;28;20202;-71
2022/11/22 05:36:31;;;;;;;6.68;2.55;;;6.80;99.90;;;;;;5008111;28;20675;-69
2022/11/22 05:38:57;;;;;;;2.60;2.40;;;6.70;99.90;;;;;;5014130;28;20183;-70
2022/11/22 05:41:23;;;;;;;4.50;2.87;;;6.80;99.90;;;;;;5011405;28;20191;-70
2022/11/22 05:43:49;;;;;;;5.57;3.20;;;6.70;99.90;;;;;;5014815;28;20461;-70
2022/11/22 05:46:20;;;;;;;3.50;2.60;;;6.90;99.90;;;;;;5012303;28;20441;-70
2022/11/22 05:48:47;;;;;;;6.82;2.47;;;7.00;99.90;;;;;;5023173;28;20509;-70
2022/11/22 05:51:15;;;;;;;3.15;2.08;;;7.00;99.90;;;;;;5008717;28;20193;-69
2022/11/22 05:53:42;;;;;;;3.25;2.45;;;7.00;99.90;;;;;;5017120;28;20202;-70
2022/11/22 05:56:13;;;;;;;3.83;2.38;;;6.60;99.90;;;;;;5018153;28;21319;-72
2022/11/22 05:58:39;;;;;;;3.90;3.10;;;7.00;99.90;;;;;;5012461;28;20681;-70
2022/11/22 06:01:25;;;;;;;3.33;2.83;;;7.10;99.90;;;;;;5024326;28;20279;-72
2022/11/22 06:03:51;;;;;;;4.53;2.60;;;7.10;99.90;;;;;;5012912;28;20560;-69
2022/11/22 06:06:17;;;;;;;4.95;3.20;;;7.00;99.90;;;;;;5006248;28;20187;-70
2022/11/22 06:08:46;;;;;;;6.40;3.37;;;6.90;99.90;;;;;;5006370;28;20210;-69
2022/11/22 06:11:17;;;;;;;5.10;2.85;;;7.00;99.90;;;;;;5016046;28;20811;-70
2022/11/22 06:13:44;;;;;;;5.57;3.00;;;6.90;99.90;;;;;;5016007;28;20269;-70
2022/11/22 06:16:11;;;;;;;3.65;2.60;;;7.10;99.90;;;;;;5000699;28;20213;-70
2022/11/22 06:18:37;;;;;;;4.57;2.58;;;7.30;99.90;;;;;;5009280;28;20218;-70
2022/11/22 06:21:06;;;;;;;7.25;3.13;;;7.00;99.90;;;;;;5007699;28;20212;-65
2022/11/22 06:23:32;;;;;;;4.00;2.65;;;7.30;99.90;;;;;;5010923;28;20297;-65
2022/11/22 06:25:58;;;;;;;3.10;2.30;;;7.40;99.90;;;;;;5006440;28;20237;-66
2022/11/22 06:28:25;;;;;;;4.22;2.47;;;7.20;99.90;;;;;;5013653;28;20995;-67
2022/11/22 06:30:50;;;;;;;5.30;3.10;;;7.30;99.90;;;;;;5011511;28;20249;-66
2022/11/22 06:33:16;;;;;;;5.20;2.83;;;7.30;99.90;;;;;;5003414;28;20210;-66
2022/11/22 06:35:41;;;;;;;5.63;2.60;;;7.10;99.90;;;;;;5004016;28;20684;-66
2022/11/22 06:38:07;;;;;;;3.60;2.53;;;7.10;99.90;;;;;;5010258;28;20197;-66
2022/11/22 06:40:33;;;;;;;5.17;2.87;;;7.00;99.90;;;;;;5009842;28;20183;-67
2022/11/22 06:42:58;;;;;;;3.80;2.77;;;7.10;99.90;;;;;;4998420;28;20223;-66
2022/11/22 06:45:24;;;;;;;3.37;2.30;;;7.30;99.90;;;;;;5007614;28;20198;-68
2022/11/22 06:47:50;;;;;;;7.17;2.47;;;7.10;99.90;;;;;;5011815;28;20237;-69
2022/11/22 06:50:15;;;;;;;5.37;2.50;;;7.30;99.90;;;;;;5010879;28;20187;-65
2022/11/22 06:52:41;;;;;;;7.00;2.60;;;7.30;99.90;;;;;;5009395;28;20209;-68
2022/11/22 06:55:07;;;;;;;5.03;3.57;;;7.30;99.90;;;;;;5008944;28;20636;-66
2022/11/22 06:57:32;;;;;;;5.83;4.17;;;7.90;99.90;;;;;;5029079;28;20187;-68
2022/11/22 06:59:58;;;;;;;7.20;2.50;;;7.40;99.90;;;;;;5011650;28;20428;-68
2022/11/22 07:02:24;;;;;;;3.17;2.37;;;7.40;99.90;;;;;;5011125;28;20202;-66
2022/11/22 07:04:49;;;;;;;4.07;2.63;;;7.40;99.90;;;;;;5011027;28;20457;-68
2022/11/22 07:07:15;;;;;;;5.77;3.00;;;7.50;99.90;;;;;;5009033;28;20190;-68
2022/11/22 07:09:41;;;;;;;3.93;3.30;;;7.70;99.90;;;;;;5010009;28;20279;-68
2022/11/22 07:12:07;;;;;;;4.53;2.87;;;7.70;99.90;;;;;;5009877;28;20450;-69
2022/11/22 07:14:32;;;;;;;4.23;2.80;;;7.40;99.90;;;;;;5007551;28;20203;-68
2022/11/22 07:16:58;;;;;;;8.50;3.37;;;7.30;99.90;;;;;;5008618;28;20713;-67
2022/11/22 07:19:24;;;;;;;4.13;2.97;;;7.40;99.90;;;;;;5009210;28;20179;-68
2022/11/22 07:21:49;;;;;;;5.20;3.00;;;7.30;99.90;;;;;;5008885;28;20180;-69
2022/11/22 07:24:15;;;;;;;3.93;2.70;;;7.40;99.90;;;;;;5008899;28;20562;-69
2022/11/22 07:26:41;;;;;;;7.23;3.50;;;6.80;99.90;;;;;;5008889;28;20178;-68
2022/11/22 07:29:06;;;;;;;4.47;3.30;;;7.10;99.90;;;;;;5007454;28;20788;-68
2022/11/22 07:31:33;;;;;;;8.27;3.50;;;7.30;99.90;;;;;;5008203;28;20194;-68
2022/11/22 07:33:59;;;;;;;7.60;3.38;;;7.40;99.90;;;;;;5007921;28;20245;-67
2022/11/22 07:36:28;;;;;;;5.10;3.33;;;7.50;99.90;;;;;;5000535;28;20210;-66
2022/11/22 07:38:53;;;;;;;5.07;3.10;;;7.40;99.90;;;;;;5011135;28;20183;-67
2022/11/22 07:41:20;;;;;;;5.73;2.90;;;7.60;99.90;;;;;;5003455;28;20187;-67
2022/11/22 07:43:46;;;;;;;3.63;2.53;;;7.30;99.90;;;;;;5008898;28;20195;-67
2022/11/22 07:46:20;;;;;;;6.37;4.47;;;7.50;99.90;;;;;;5002860;28;20604;-67
2022/11/22 07:48:48;;;;;;;3.58;2.90;;;7.50;99.90;;;;;;5010235;28;20237;-66
2022/11/22 07:51:14;;;;;;;5.03;2.92;;;7.40;99.90;;;;;;5007040;28;20190;-66
2022/11/22 07:53:40;;;;;;;5.93;3.80;;;7.70;99.90;;;;;;5008512;28;20206;-67
2022/11/22 07:56:06;;;;;;;6.93;5.10;;;7.70;99.90;;;;;;5021089;28;20464;-67
2022/11/22 07:58:33;;;;;;;4.70;4.03;;;7.70;99.90;;;;;;5022892;28;20505;-65
2022/11/22 08:01:11;;;;;;;5.60;4.05;;;7.60;99.90;;;;;;5006642;28;20257;-66
2022/11/22 08:03:37;;;;;;;8.60;6.20;;;7.80;99.90;;;;;;5007810;28;20203;-68
2022/11/22 08:06:06;;;;;;;5.50;2.75;;;7.80;99.90;;;;;;5019380;28;20217;-66
2022/11/22 08:08:32;;;;;;;4.97;3.15;;;7.80;99.90;;;;;;5007509;28;20782;-65
2022/11/22 08:10:57;;;;;;;5.50;3.67;;;7.90;99.90;;;;;;5009128;28;20217;-65
2022/11/22 08:13:23;;;;;;;5.07;3.67;;;7.70;99.90;;;;;;5010710;28;20607;-66
2022/11/22 08:15:49;;;;;;;6.87;2.93;;;8.10;99.90;;;;;;5007285;28;20229;-66
2022/11/22 08:18:15;;;;;;;9.70;3.37;;;7.90;99.90;;;;;;5007932;28;20183;-66
2022/11/22 08:20:41;;;;;;;3.40;2.75;;;7.80;99.90;;;;;;5005729;28;20355;-67
2022/11/22 08:23:06;;;;;;;6.93;3.80;;;7.60;99.90;;;;;;5006579;28;20333;-66
2022/11/22 08:25:32;;;;;;;6.67;2.93;;;7.80;99.90;;;;;;5007920;28;20236;-66
2022/11/22 08:27:58;;;;;;;3.67;3.00;;;8.10;99.90;;;;;;5007479;28;20175;-66
2022/11/22 08:30:23;;;;;;;3.27;2.10;;;8.40;99.90;;;;;;5006414;28;20416;-67
2022/11/22 08:32:50;;;;;;;3.63;2.80;;;8.30;99.90;;;;;;5005236;28;20214;-67
2022/11/22 08:35:16;;;;;;;8.77;2.85;;;8.20;99.90;;;;;;5022565;28;20293;-66
2022/11/22 08:37:41;;;;;;;4.97;3.17;;;8.20;99.90;;;;;;5002113;28;20333;-67
2022/11/22 08:40:08;;;;;;;4.60;3.00;;;8.50;99.90;;;;;;5008250;28;20644;-67
2022/11/22 08:42:33;;;;;;;4.53;3.28;;;8.40;99.90;;;;;;5006121;28;20194;-64
2022/11/22 08:44:59;;;;;;;5.00;2.93;;;8.50;99.90;;;;;;5004556;28;20562;-67
2022/11/22 08:47:25;;;;;;;5.60;2.90;;;8.40;99.90;;;;;;5007914;28;20337;-64
2022/11/22 08:49:50;;;;;;;6.10;2.77;;;8.60;99.90;;;;;;5006961;28;20189;-65
2022/11/22 08:52:16;;;;;;;6.37;3.20;;;8.70;99.90;;;;;;5006885;28;20184;-64
2022/11/22 08:54:42;;;;;;;5.87;3.43;;;8.80;99.90;;;;;;5007957;28;20211;-65
2022/11/22 08:57:07;;;;;;;6.80;4.30;;;8.30;99.90;;;;;;5004293;28;20189;-64
2022/11/22 08:59:33;;;;;;;3.83;3.40;;;8.90;99.90;;;;;;5008013;28;20500;-65
2022/11/22 09:01:58;;;;;;;5.07;4.57;;;8.70;99.90;;;;;;5012353;28;20187;-65
2022/11/22 09:04:24;;;;;;;5.30;3.00;;;9.10;99.90;;;;;;5009391;28;20198;-65
2022/11/22 09:06:49;;;;;;;4.83;3.63;;;8.90;99.90;;;;;;4998658;28;20258;-65
2022/11/22 09:09:15;;;;;;;5.70;2.63;;;9.00;99.90;;;;;;5011787;28;20179;-65
2022/11/22 09:11:41;;;;;;;3.70;2.60;;;8.80;99.90;;;;;;5016995;28;20553;-66
2022/11/22 09:14:06;;;;;;;5.23;3.53;;;8.90;99.90;;;;;;5011981;28;20281;-64
2022/11/22 09:16:32;;;;;;;5.40;2.50;;;9.20;99.90;;;;;;5019434;28;20294;-64
2022/11/22 09:18:58;;;;;;;2.80;1.90;;;9.20;99.90;;;;;;5014148;28;20179;-64
2022/11/22 09:21:23;;;;;;;2.70;2.20;;;9.40;99.90;;;;;;5021779;28;20190;-65
2022/11/22 09:23:52;;;;;;;5.77;1.93;;;9.50;99.90;;;;;;5012588;28;20649;-65
2022/11/22 09:26:21;;;;;;;3.97;2.30;;;9.90;99.90;;;;;;5020171;28;20709;-65
2022/11/22 09:28:47;;;;;;;5.13;2.50;;;10.00;99.90;;;;;;5013547;28;20188;-63
2022/11/22 09:31:15;;;;;;;3.88;2.00;;;9.90;99.90;;;;;;5006613;28;20274;-64
2022/11/22 09:33:43;;;;;;;2.55;2.20;;;9.70;99.90;;;;;;5025628;28;20217;-64
2022/11/22 09:36:21;;;;;;;4.22;1.75;;;9.90;99.90;;;;;;5011645;28;20302;-64
2022/11/22 09:38:47;;;;;;;4.70;2.08;;;10.20;99.90;;;;;;5012626;28;20213;-64
2022/11/22 09:41:15;;;;;;;3.90;2.33;;;9.90;99.90;;;;;;5019132;28;20244;-64
2022/11/22 09:43:53;;;;;;;4.20;2.17;;;10.10;99.90;;;;;;5016057;28;20444;-64
2022/11/22 09:46:29;;;;;;;5.50;2.40;;;10.30;99.90;;;;;;5016550;28;20199;-64
2022/11/22 09:49:00;;;;;;;3.50;2.28;;;10.20;99.90;;;;;;5015231;28;20237;-64
2022/11/22 09:51:47;;;;;;;3.47;2.10;;;10.20;99.90;;;;;;5008264;28;20196;-64
2022/11/22 09:54:19;;;;;;;5.15;2.05;;;10.20;99.90;;;;;;5021008;28;20202;-64
2022/11/22 09:56:48;;;;;;;3.47;2.13;;;10.10;99.90;;;;;;5020656;28;20731;-64
2022/11/22 09:59:24;;;;;;;3.38;2.28;;;10.20;99.90;;;;;;5012363;28;20628;-64
2022/11/22 10:01:56;;;;;;;5.05;1.80;;;10.20;99.90;;;;;;5007852;28;20275;-64
2022/11/22 10:04:27;;;;;;;5.05;2.22;;;10.20;99.90;;;;;;5007350;28;20196;-64
2022/11/22 10:06:59;;;;;;;4.35;2.15;;;10.20;99.90;;;;;;5012139;28;20514;-64
2022/11/22 10:09:30;;;;;;;4.10;2.05;;;10.40;99.90;;;;;;5012801;28;20180;-64
2022/11/22 10:12:00;;;;;;;4.35;2.03;;;10.30;99.90;;;;;;5013030;28;20237;-64
2022/11/22 10:14:35;;;;;;;2.45;1.48;;;10.10;99.90;;;;;;5012076;28;20755;-64
2022/11/22 10:17:19;;;;;;;4.45;2.20;;;10.30;99.90;;;;;;5011593;28;20194;-64
2022/11/22 10:19:55;;;;;;;5.25;3.15;;;10.30;99.90;;;;;;5011905;28;20191;-64
2022/11/22 10:22:28;;;;;;;3.80;2.05;;;10.10;99.90;;;;;;5011347;28;20186;-64
2022/11/22 10:24:53;;;;;;;4.15;2.10;;;10.20;99.90;;;;;;5011653;28;20663;-65
2022/11/22 10:27:19;;;;;;;4.30;1.97;;;10.20;99.90;;;;;;5012979;28;20188;-64
2022/11/22 10:29:58;;;;;;;4.77;2.10;;;10.10;99.90;;;;;;5015305;28;20183;-64
2022/11/22 10:32:42;;;;;;;6.80;1.90;;;10.40;99.90;;;;;;5007745;28;20196;-65
2022/11/22 10:35:18;;;;;;;4.88;2.00;;;10.40;99.90;;;;;;5012415;28;20237;-65
2022/11/22 10:38:34;;;;;;;4.75;2.45;;;10.30;99.90;;;;;;5022306;28;20183;-65
2022/11/22 10:41:10;;;;;;;8.00;3.08;;;10.10;99.90;;;;;;5005753;28;20199;-65
2022/11/22 10:44:02;;;;;;;4.72;2.00;;;9.60;99.90;;;;;;5010796;28;20213;-64
2022/11/22 10:46:39;;;;;;;4.10;1.75;;;10.10;99.90;;;;;;5008159;28;20657;-64
2022/11/22 10:49:50;;;;;;;4.82;1.83;;;10.20;99.90;;;;;;5022307;28;20186;-65
2022/11/22 10:52:50;;;;;;;5.45;2.35;;;9.90;99.90;;;;;;5001810;28;20193;-63
2022/11/22 10:55:54;;;;;;;2.70;1.55;;;10.10;99.90;;;;;;5005848;28;20258;-64
2022/11/22 10:58:50;;;;;;;5.72;2.13;;;10.20;99.90;;;;;;5004254;28;20176;-65
2022/11/22 11:01:30;;;;;;;4.97;1.55;;;10.30;99.90;;;;;;5006529;28;20192;-66
2022/11/22 11:04:00;;;;;;;5.40;1.55;;;10.30;99.90;;;;;;5008879;28;20597;-64
2022/11/22 11:06:33;;;;;;;7.10;1.80;;;10.30;99.90;;;;;;5007667;28;20283;-65
2022/11/22 11:09:22;;;;;;;5.13;1.70;;;10.30;99.90;;;;;;5009134;28;20179;-65
2022/11/22 11:11:50;;;;;;;2.10;1.38;;;10.10;99.90;;;;;;5004346;28;20532;-67
2022/11/22 11:14:25;;;;;;;3.05;1.50;;;10.20;99.90;;;;;;4998844;28;20255;-68
2022/11/22 11:16:52;;;;;;;3.80;1.50;;;10.40;99.90;;;;;;5005596;28;20228;-66
2022/11/22 11:19:21;;;;;;;4.00;1.30;;;10.10;99.90;;;;;;5026448;28;20195;-66
2022/11/22 11:22:01;;;;;;;2.97;1.20;;;10.30;99.90;;;;;;5008099;28;20233;-66
2022/11/22 11:24:30;;;;;;;2.90;1.75;;;10.00;99.90;;;;;;5011208;28;20667;-66
2022/11/22 11:26:58;;;;;;;3.40;1.83;;;10.30;99.90;;;;;;5024304;28;20183;-67
2022/11/22 11:29:23;;;;;;;3.63;1.10;;;10.50;99.60;;;;;;5006200;28;20566;-67
2022/11/22 11:32:02;;;;;;;3.00;1.83;;;10.20;99.60;;;;;;5002780;28;20223;-66
2022/11/22 11:34:28;;;;;;;4.05;1.95;;;10.50;99.50;;;;;;5004844;28;20203;-66
2022/11/22 11:36:57;;;;;;;4.33;1.83;;;10.40;99.70;;;;;;5008793;28;20586;-69
2022/11/22 11:39:27;;;;;;;2.45;1.98;;;10.60;99.90;;;;;;5010405;28;20451;-66
2022/11/22 11:41:54;;;;;;;4.60;1.65;;;10.50;99.30;;;;;;5011507;28;20203;-66
2022/11/22 11:44:34;;;;;;;5.32;1.85;;;10.70;99.00;;;;;;5009674;28;20200;-68
2022/11/22 11:47:03;;;;;;;3.58;1.70;;;10.50;99.70;;;;;;5006638;28;20189;-65
2022/11/22 11:49:39;;;;;;;4.10;1.80;;;10.70;99.30;;;;;;5002440;28;20550;-68
2022/11/22 11:52:24;;;;;;;2.95;1.40;;;11.00;98.90;;;;;;5006879;28;20184;-65
2022/11/22 11:55:05;;;;;;;5.50;2.10;;;10.70;97.60;;;;;;5008740;28;20527;-66
2022/11/22 11:57:33;;;;;;;5.40;1.40;;;10.80;97.00;;;;;;5008985;28;20214;-68
2022/11/22 12:00:02;;;;;;;5.07;1.55;;;10.60;96.80;;;;;;5015397;28;20264;-64
2022/11/22 12:02:41;;;;;;;4.15;1.05;;;10.70;97.50;;;;;;5008918;28;20193;-65
2022/11/22 12:05:29;;;;;;;2.08;1.30;;;10.50;97.10;;;;;;5006796;28;20674;-64
2022/11/22 12:07:54;;;;;;;6.18;1.98;;;10.60;96.80;;;;;;5015667;28;20634;-65
2022/11/22 12:11:07;;;;;;;5.00;1.60;;;10.70;97.20;;;;;;5008448;28;20190;-66
2022/11/22 12:13:44;;;;;;;4.68;1.55;;;10.60;97.00;;;;;;5015988;28;20627;-68
2022/11/22 12:16:22;;;;;;;5.22;1.77;;;10.80;97.30;;;;;;5003226;28;20760;-64
2022/11/22 12:19:16;;;;;;;2.80;1.20;;;10.60;97.20;;;;;;5007878;28;20230;-65
2022/11/22 12:22:09;;;;;;;4.15;1.50;;;10.70;97.30;;;;;;5005896;28;20179;-65
2022/11/22 12:24:52;;;;;;;1.35;1.00;;;10.60;97.30;;;;;;5007213;28;20255;-65
2022/11/22 12:27:18;;;;;;;2.08;1.30;;;10.70;97.10;;;;;;4999386;28;20176;-64
2022/11/22 12:29:44;;;;;;;7.30;2.90;;;10.80;97.30;;;;;;5005105;28;20185;-64
2022/11/22 12:32:26;;;;;;;4.95;2.40;;;10.80;97.30;;;;;;5009914;28;20438;-66
2022/11/22 12:35:13;;;;;;;2.45;1.30;;;10.70;97.30;;;;;;5009432;28;20565;-64
2022/11/22 12:38:05;;;;;;;2.58;1.38;;;10.90;97.30;;;;;;5006963;28;20192;-65
2022/11/22 12:40:38;;;;;;;4.25;1.25;;;10.80;96.90;;;;;;5002880;28;20187;-64
2022/11/22 12:43:13;;;;;;;4.63;1.25;;;10.70;96.90;;;;;;5008313;28;20218;-67
2022/11/22 12:45:43;;;;;;;2.50;1.20;;;10.60;96.60;;;;;;5019519;28;20214;-65
2022/11/22 12:48:18;;;;;;;5.63;1.33;;;10.50;96.30;;;;;;5012128;28;20189;-65
2022/11/22 12:50:51;;;;;;;2.65;1.30;;;10.50;96.70;;;;;;5005763;28;20176;-67
2022/11/22 12:53:33;;;;;;;2.75;1.42;;;10.50;96.50;;;;;;5008285;28;20219;-66
2022/11/22 12:56:17;;;;;;;1.70;1.10;;;10.40;96.20;;;;;;5004660;28;20256;-66
2022/11/22 12:58:57;;;;;;;4.55;1.60;;;10.30;96.40;;;;;;5011850;28;20188;-66
2022/11/22 13:01:33;;;;;;;5.70;1.55;;;10.40;96.80;;;;;;5009812;28;20234;-66
2022/11/22 13:04:08;;;;;;;4.60;1.85;;;10.40;96.80;;;;;;5007205;28;20575;-66
2022/11/22 13:06:53;;;;;;;3.45;1.40;;;10.30;96.90;;;;;;5014441;28;20263;-65
2022/11/22 13:09:25;;;;;;;4.22;1.90;;;10.30;97.80;;;;;;5008692;28;20194;-69
2022/11/22 13:12:07;;;;;;;2.88;1.30;;;10.20;97.30;;;;;;5006727;28;20189;-67
2022/11/22 13:14:34;;;;;;;4.20;1.40;;;10.20;97.30;;;;;;5005017;28;20266;-66
2022/11/22 13:17:06;;;;;;;5.47;2.33;;;10.50;97.60;;;;;;5007726;28;20193;-67
2022/11/22 13:19:43;;;;;;;4.05;1.80;;;10.40;97.40;;;;;;5009943;28;20201;-66
2022/11/22 13:22:20;;;;;;;5.30;1.30;;;10.40;97.10;;;;;;5000945;28;20187;-66